sensor_id;sensor_type;location;lat;lon;timestamp;temperature;humidity
15977;DHT22;8091;51.914;12.786;2022-08-07T00:00:59;14.80;1.00
15977;DHT22;8091;51.914;12.786;2022-08-07T00:03:25;14.80;1.00
15977;DHT22;8091;51.914;12.786;2022-08-07T00:05:52;14.80;1.00
15977;DHT22;8091;51.914;12.786;2022-08-07T00:08:19;14.90;1.00
15977;DHT22;8091;51.914;12.786;2022-08-07T00:10:47;14.90;1.00
15977;DHT22;8091;51.914;12.786;2022-08-07T00:13:13;14.90;1.00
15977;DHT22;8091;51.914;12.786;2022-08-07T00:15:39;14.80;1.00
15977;DHT22;8091;51.914;12.786;2022-08-07T00:18:05;14.80;1.00
15977;DHT22;8091;51.914;12.786;2022-08-07T00:20:33;14.80;1.00
15977;DHT22;8091;51.914;12.786;2022-08-07T00:22:58;14.80;1.00
15977;DHT22;8091;51.914;12.786;2022-08-07T00:25:24;14.70;1.00
15977;DHT22;8091;51.914;12.786;2022-08-07T00:27:50;14.70;1.00
15977;DHT22;8091;51.914;12.786;2022-08-07T00:30:16;14.80;1.00
15977;DHT22;8091;51.914;12.786;2022-08-07T00:32:42;14.80;1.00
15977;DHT22;8091;51.914;12.786;2022-08-07T00:35:08;15.00;1.00
15977;DHT22;8091;51.914;12.786;2022-08-07T00:37:33;14.80;1.00
15977;DHT22;8091;51.914;12.786;2022-08-07T00:39:59;14.70;1.00
15977;DHT22;8091;51.914;12.786;2022-08-07T00:42:24;14.50;1.00
15977;DHT22;8091;51.914;12.786;2022-08-07T00:44:50;14.40;1.00
15977;DHT22;8091;51.914;12.786;2022-08-07T00:47:16;14.30;1.00
15977;DHT22;8091;51.914;12.786;2022-08-07T00:49:41;14.30;1.00
15977;DHT22;8091;51.914;12.786;2022-08-07T00:52:08;14.30;1.00
15977;DHT22;8091;51.914;12.786;2022-08-07T00:54:33;14.30;1.00
15977;DHT22;8091;51.914;12.786;2022-08-07T00:56:59;14.20;1.00
15977;DHT22;8091;51.914;12.786;2022-08-07T00:59:25;14.20;1.00
15977;DHT22;8091;51.914;12.786;2022-08-07T01:01:51;14.30;1.00
15977;DHT22;8091;51.914;12.786;2022-08-07T01:04:17;14.30;4.10
15977;DHT22;8091;51.914;12.786;2022-08-07T01:06:44;14.20;98.40
15977;DHT22;8091;51.914;12.786;2022-08-07T01:09:10;14.20;99.90
15977;DHT22;8091;51.914;12.786;2022-08-07T01:11:36;14.10;99.90
15977;DHT22;8091;51.914;12.786;2022-08-07T01:14:03;14.10;99.90
15977;DHT22;8091;51.914;12.786;2022-08-07T01:16:29;14.00;89.20
15977;DHT22;8091;51.914;12.786;2022-08-07T01:18:55;14.00;96.60
15977;DHT22;8091;51.914;12.786;2022-08-07T01:21:21;13.80;95.50
15977;DHT22;8091;51.914;12.786;2022-08-07T01:23:51;13.90;59.50
15977;DHT22;8091;51.914;12.786;2022-08-07T01:26:18;13.90;44.50
15977;DHT22;8091;51.914;12.786;2022-08-07T01:28:47;13.90;34.00
15977;DHT22;8091;51.914;12.786;2022-08-07T01:31:17;14.00;1.00
15977;DHT22;8091;51.914;12.786;2022-08-07T01:33:44;14.10;1.00
15977;DHT22;8091;51.914;12.786;2022-08-07T01:36:10;14.10;1.00
15977;DHT22;8091;51.914;12.786;2022-08-07T01:38:38;14.00;1.00
15977;DHT22;8091;51.914;12.786;2022-08-07T01:41:05;13.80;1.00
15977;DHT22;8091;51.914;12.786;2022-08-07T01:43:32;13.60;1.00
15977;DHT22;8091;51.914;12.786;2022-08-07T01:45:58;13.50;25.70
15977;DHT22;8091;51.914;12.786;2022-08-07T01:48:24;13.40;93.20
15977;DHT22;8091;51.914;12.786;2022-08-07T01:50:56;13.30;99.90
15977;DHT22;8091;51.914;12.786;2022-08-07T01:53:25;13.30;99.90
15977;DHT22;8091;51.914;12.786;2022-08-07T01:55:55;13.30;99.90
15977;DHT22;8091;51.914;12.786;2022-08-07T01:58:22;13.30;99.90
15977;DHT22;8091;51.914;12.786;2022-08-07T02:00:50;13.30;99.90
15977;DHT22;8091;51.914;12.786;2022-08-07T02:03:19;13.40;99.90
15977;DHT22;8091;51.914;12.786;2022-08-07T02:05:51;13.40;99.90
15977;DHT22;8091;51.914;12.786;2022-08-07T02:08:21;13.30;99.90
15977;DHT22;8091;51.914;12.786;2022-08-07T02:10:48;13.20;99.90
15977;DHT22;8091;51.914;12.786;2022-08-07T02:13:22;13.10;99.90
15977;DHT22;8091;51.914;12.786;2022-08-07T02:15:49;13.10;99.90
15977;DHT22;8091;51.914;12.786;2022-08-07T02:18:17;13.00;99.90
15977;DHT22;8091;51.914;12.786;2022-08-07T02:20:44;13.00;99.90
15977;DHT22;8091;51.914;12.786;2022-08-07T02:23:13;12.90;99.90
15977;DHT22;8091;51.914;12.786;2022-08-07T02:25:40;13.00;99.90
15977;DHT22;8091;51.914;12.786;2022-08-07T02:28:06;13.00;99.90
15977;DHT22;8091;51.914;12.786;2022-08-07T02:30:34;12.90;99.90
15977;DHT22;8091;51.914;12.786;2022-08-07T02:33:01;12.80;1.00
15977;DHT22;8091;51.914;12.786;2022-08-07T02:35:31;12.90;1.00
15977;DHT22;8091;51.914;12.786;2022-08-07T02:37:57;12.80;1.00
15977;DHT22;8091;51.914;12.786;2022-08-07T02:40:24;12.90;1.00
15977;DHT22;8091;51.914;12.786;2022-08-07T02:42:50;12.90;99.90
15977;DHT22;8091;51.914;12.786;2022-08-07T02:45:17;12.80;1.00
15977;DHT22;8091;51.914;12.786;2022-08-07T02:47:44;12.80;1.00
15977;DHT22;8091;51.914;12.786;2022-08-07T02:50:10;12.80;99.90
15977;DHT22;8091;51.914;12.786;2022-08-07T02:52:40;12.80;99.90
15977;DHT22;8091;51.914;12.786;2022-08-07T02:55:11;12.70;99.90
15977;DHT22;8091;51.914;12.786;2022-08-07T02:57:39;12.70;1.00
15977;DHT22;8091;51.914;12.786;2022-08-07T03:00:06;12.80;1.00
15977;DHT22;8091;51.914;12.786;2022-08-07T03:02:33;12.80;99.90
15977;DHT22;8091;51.914;12.786;2022-08-07T03:05:00;12.80;99.90
15977;DHT22;8091;51.914;12.786;2022-08-07T03:07:26;12.90;99.90
15977;DHT22;8091;51.914;12.786;2022-08-07T03:09:54;12.90;99.90
15977;DHT22;8091;51.914;12.786;2022-08-07T03:12:20;12.70;99.90
15977;DHT22;8091;51.914;12.786;2022-08-07T03:14:47;12.70;99.90
15977;DHT22;8091;51.914;12.786;2022-08-07T03:17:13;12.70;1.00
15977;DHT22;8091;51.914;12.786;2022-08-07T03:19:40;12.70;1.00
15977;DHT22;8091;51.914;12.786;2022-08-07T03:22:06;12.70;1.00
15977;DHT22;8091;51.914;12.786;2022-08-07T03:24:33;12.70;1.00
15977;DHT22;8091;51.914;12.786;2022-08-07T03:27:01;12.60;99.90
15977;DHT22;8091;51.914;12.786;2022-08-07T03:29:32;12.60;1.00
15977;DHT22;8091;51.914;12.786;2022-08-07T03:32:01;12.60;1.00
15977;DHT22;8091;51.914;12.786;2022-08-07T03:34:29;12.60;1.00
15977;DHT22;8091;51.914;12.786;2022-08-07T03:36:57;12.50;1.00
15977;DHT22;8091;51.914;12.786;2022-08-07T03:39:25;12.50;99.90
15977;DHT22;8091;51.914;12.786;2022-08-07T03:41:51;12.60;99.90
15977;DHT22;8091;51.914;12.786;2022-08-07T03:44:17;12.70;99.90
15977;DHT22;8091;51.914;12.786;2022-08-07T03:46:43;12.70;99.90
15977;DHT22;8091;51.914;12.786;2022-08-07T03:49:09;12.70;99.90
15977;DHT22;8091;51.914;12.786;2022-08-07T03:51:34;12.60;99.90
15977;DHT22;8091;51.914;12.786;2022-08-07T03:54:01;12.60;99.90
15977;DHT22;8091;51.914;12.786;2022-08-07T03:56:30;12.60;99.90
15977;DHT22;8091;51.914;12.786;2022-08-07T03:58:59;12.50;99.90
15977;DHT22;8091;51.914;12.786;2022-08-07T04:01:26;12.30;99.90
15977;DHT22;8091;51.914;12.786;2022-08-07T04:03:53;12.20;1.00
15977;DHT22;8091;51.914;12.786;2022-08-07T04:06:19;12.20;1.00
15977;DHT22;8091;51.914;12.786;2022-08-07T04:08:45;12.30;1.00
15977;DHT22;8091;51.914;12.786;2022-08-07T04:11:11;12.30;1.00
15977;DHT22;8091;51.914;12.786;2022-08-07T04:13:38;12.30;1.00
15977;DHT22;8091;51.914;12.786;2022-08-07T04:16:04;12.20;1.00
15977;DHT22;8091;51.914;12.786;2022-08-07T04:18:30;12.30;1.00
15977;DHT22;8091;51.914;12.786;2022-08-07T04:20:56;12.30;1.00
15977;DHT22;8091;51.914;12.786;2022-08-07T04:23:22;12.30;1.00
15977;DHT22;8091;51.914;12.786;2022-08-07T04:25:49;12.30;1.00
15977;DHT22;8091;51.914;12.786;2022-08-07T04:28:15;12.40;99.90
15977;DHT22;8091;51.914;12.786;2022-08-07T04:30:41;12.40;99.90
15977;DHT22;8091;51.914;12.786;2022-08-07T04:33:08;12.60;99.90
15977;DHT22;8091;51.914;12.786;2022-08-07T04:35:36;12.70;99.90
15977;DHT22;8091;51.914;12.786;2022-08-07T04:38:06;12.80;99.90
15977;DHT22;8091;51.914;12.786;2022-08-07T04:40:33;12.90;99.90
15977;DHT22;8091;51.914;12.786;2022-08-07T04:42:59;12.90;99.90
15977;DHT22;8091;51.914;12.786;2022-08-07T04:45:36;13.00;99.90
15977;DHT22;8091;51.914;12.786;2022-08-07T04:50:55;12.90;99.90
15977;DHT22;8091;51.914;12.786;2022-08-07T04:53:32;13.20;99.90
15977;DHT22;8091;51.914;12.786;2022-08-07T04:56:08;13.20;99.90
15977;DHT22;8091;51.914;12.786;2022-08-07T04:58:57;13.30;99.90
15977;DHT22;8091;51.914;12.786;2022-08-07T05:01:50;13.30;99.90
15977;DHT22;8091;51.914;12.786;2022-08-07T05:04:34;13.40;99.90
15977;DHT22;8091;51.914;12.786;2022-08-07T05:10:15;13.60;99.90
15977;DHT22;8091;51.914;12.786;2022-08-07T05:13:04;13.70;99.90
15977;DHT22;8091;51.914;12.786;2022-08-07T05:15:37;13.80;99.90
15977;DHT22;8091;51.914;12.786;2022-08-07T05:18:29;13.90;99.90
15977;DHT22;8091;51.914;12.786;2022-08-07T05:21:02;13.90;99.90
15977;DHT22;8091;51.914;12.786;2022-08-07T05:23:37;14.00;99.90
15977;DHT22;8091;51.914;12.786;2022-08-07T05:26:10;14.20;99.90
15977;DHT22;8091;51.914;12.786;2022-08-07T05:28:38;14.30;99.90
15977;DHT22;8091;51.914;12.786;2022-08-07T05:31:04;14.50;99.90
15977;DHT22;8091;51.914;12.786;2022-08-07T05:33:33;14.60;99.90
15977;DHT22;8091;51.914;12.786;2022-08-07T05:36:00;14.70;44.50
15977;DHT22;8091;51.914;12.786;2022-08-07T05:38:27;14.90;1.00
15977;DHT22;8091;51.914;12.786;2022-08-07T05:40:53;15.10;1.00
15977;DHT22;8091;51.914;12.786;2022-08-07T05:43:19;15.00;1.00
15977;DHT22;8091;51.914;12.786;2022-08-07T05:45:46;15.20;1.00
15977;DHT22;8091;51.914;12.786;2022-08-07T05:48:13;15.30;1.00
15977;DHT22;8091;51.914;12.786;2022-08-07T05:50:40;15.40;1.00
15977;DHT22;8091;51.914;12.786;2022-08-07T05:53:05;15.50;1.00
15977;DHT22;8091;51.914;12.786;2022-08-07T05:55:33;15.60;1.00
15977;DHT22;8091;51.914;12.786;2022-08-07T05:58:00;15.80;1.00
15977;DHT22;8091;51.914;12.786;2022-08-07T06:00:28;16.00;1.00
15977;DHT22;8091;51.914;12.786;2022-08-07T06:02:55;16.20;1.00
15977;DHT22;8091;51.914;12.786;2022-08-07T06:05:22;16.30;1.00
15977;DHT22;8091;51.914;12.786;2022-08-07T06:07:51;16.40;1.00
15977;DHT22;8091;51.914;12.786;2022-08-07T06:10:17;16.60;1.00
15977;DHT22;8091;51.914;12.786;2022-08-07T06:12:43;16.80;1.00
15977;DHT22;8091;51.914;12.786;2022-08-07T06:15:13;16.90;1.00
15977;DHT22;8091;51.914;12.786;2022-08-07T06:17:39;17.00;1.00
15977;DHT22;8091;51.914;12.786;2022-08-07T06:20:07;17.10;1.00
15977;DHT22;8091;51.914;12.786;2022-08-07T06:22:34;17.30;1.00
15977;DHT22;8091;51.914;12.786;2022-08-07T06:25:02;17.40;1.00
15977;DHT22;8091;51.914;12.786;2022-08-07T06:27:27;17.50;99.90
15977;DHT22;8091;51.914;12.786;2022-08-07T06:29:53;17.60;99.90
15977;DHT22;8091;51.914;12.786;2022-08-07T06:32:19;17.60;99.90
15977;DHT22;8091;51.914;12.786;2022-08-07T06:34:45;17.70;99.90
15977;DHT22;8091;51.914;12.786;2022-08-07T06:37:11;17.90;99.90
15977;DHT22;8091;51.914;12.786;2022-08-07T06:39:36;17.90;99.90
15977;DHT22;8091;51.914;12.786;2022-08-07T06:42:09;17.90;99.90
15977;DHT22;8091;51.914;12.786;2022-08-07T06:44:37;18.10;99.90
15977;DHT22;8091;51.914;12.786;2022-08-07T06:47:03;18.20;99.90
15977;DHT22;8091;51.914;12.786;2022-08-07T06:49:29;18.40;99.90
15977;DHT22;8091;51.914;12.786;2022-08-07T06:51:56;18.50;99.90
15977;DHT22;8091;51.914;12.786;2022-08-07T06:54:24;18.60;99.90
15977;DHT22;8091;51.914;12.786;2022-08-07T06:56:51;18.60;99.90
15977;DHT22;8091;51.914;12.786;2022-08-07T06:59:32;18.70;99.90
15977;DHT22;8091;51.914;12.786;2022-08-07T07:01:58;18.70;99.90
15977;DHT22;8091;51.914;12.786;2022-08-07T07:04:25;18.90;99.90
15977;DHT22;8091;51.914;12.786;2022-08-07T07:06:51;19.00;99.90
15977;DHT22;8091;51.914;12.786;2022-08-07T07:09:27;19.10;99.90
15977;DHT22;8091;51.914;12.786;2022-08-07T07:12:21;19.20;99.90
15977;DHT22;8091;51.914;12.786;2022-08-07T07:14:59;19.40;99.90
15977;DHT22;8091;51.914;12.786;2022-08-07T07:18:18;19.60;99.90
15977;DHT22;8091;51.914;12.786;2022-08-07T07:20:20;19.70;99.90
15977;DHT22;8091;51.914;12.786;2022-08-07T07:22:48;19.80;99.90
15977;DHT22;8091;51.914;12.786;2022-08-07T07:25:15;20.00;99.90
15977;DHT22;8091;51.914;12.786;2022-08-07T07:27:52;19.90;99.90
15977;DHT22;8091;51.914;12.786;2022-08-07T07:30:25;20.00;99.90
15977;DHT22;8091;51.914;12.786;2022-08-07T07:32:52;20.00;99.90
15977;DHT22;8091;51.914;12.786;2022-08-07T07:35:20;20.10;99.90
15977;DHT22;8091;51.914;12.786;2022-08-07T07:37:46;20.00;99.90
15977;DHT22;8091;51.914;12.786;2022-08-07T07:40:19;20.10;99.90
15977;DHT22;8091;51.914;12.786;2022-08-07T07:42:49;20.10;99.90
15977;DHT22;8091;51.914;12.786;2022-08-07T07:45:15;20.20;99.90
15977;DHT22;8091;51.914;12.786;2022-08-07T07:47:43;20.20;99.90
15977;DHT22;8091;51.914;12.786;2022-08-07T07:50:11;20.40;99.90
15977;DHT22;8091;51.914;12.786;2022-08-07T07:52:40;20.50;99.90
15977;DHT22;8091;51.914;12.786;2022-08-07T07:55:07;20.50;99.90
15977;DHT22;8091;51.914;12.786;2022-08-07T07:57:34;20.40;99.90
15977;DHT22;8091;51.914;12.786;2022-08-07T08:00:02;20.50;99.90
15977;DHT22;8091;51.914;12.786;2022-08-07T08:02:29;20.50;99.90
15977;DHT22;8091;51.914;12.786;2022-08-07T08:04:57;20.50;99.90
15977;DHT22;8091;51.914;12.786;2022-08-07T08:07:24;20.50;99.90
15977;DHT22;8091;51.914;12.786;2022-08-07T08:09:51;20.60;99.90
15977;DHT22;8091;51.914;12.786;2022-08-07T08:12:18;20.60;99.90
15977;DHT22;8091;51.914;12.786;2022-08-07T08:14:44;20.70;99.90
15977;DHT22;8091;51.914;12.786;2022-08-07T08:17:11;20.70;99.90
15977;DHT22;8091;51.914;12.786;2022-08-07T08:19:38;20.80;99.90
15977;DHT22;8091;51.914;12.786;2022-08-07T08:22:06;20.80;99.90
15977;DHT22;8091;51.914;12.786;2022-08-07T08:24:53;20.90;99.90
15977;DHT22;8091;51.914;12.786;2022-08-07T08:27:39;21.10;99.90
15977;DHT22;8091;51.914;12.786;2022-08-07T08:30:09;21.30;99.90
15977;DHT22;8091;51.914;12.786;2022-08-07T08:32:51;21.30;99.90
15977;DHT22;8091;51.914;12.786;2022-08-07T08:35:19;21.30;92.00
15977;DHT22;8091;51.914;12.786;2022-08-07T08:37:47;21.40;86.50
15977;DHT22;8091;51.914;12.786;2022-08-07T08:40:29;21.50;78.90
15977;DHT22;8091;51.914;12.786;2022-08-07T08:45:51;21.50;70.70
15977;DHT22;8091;51.914;12.786;2022-08-07T08:53:51;21.70;59.60
15977;DHT22;8091;51.914;12.786;2022-08-07T08:56:27;21.90;58.50
15977;DHT22;8091;51.914;12.786;2022-08-07T09:01:59;22.20;54.80
15977;DHT22;8091;51.914;12.786;2022-08-07T09:04:47;22.50;51.60
15977;DHT22;8091;51.914;12.786;2022-08-07T09:07:22;22.60;49.90
15977;DHT22;8091;51.914;12.786;2022-08-07T09:10:12;22.60;47.60
15977;DHT22;8091;51.914;12.786;2022-08-07T09:13:07;22.60;46.50
15977;DHT22;8091;51.914;12.786;2022-08-07T09:16:03;22.70;43.10
15977;DHT22;8091;51.914;12.786;2022-08-07T09:26:52;22.90;36.10
15977;DHT22;8091;51.914;12.786;2022-08-07T09:29:32;23.00;35.20
15977;DHT22;8091;51.914;12.786;2022-08-07T09:32:24;23.20;32.60
15977;DHT22;8091;51.914;12.786;2022-08-07T09:35:16;23.50;31.60
15977;DHT22;8091;51.914;12.786;2022-08-07T09:38:03;23.80;30.00
15977;DHT22;8091;51.914;12.786;2022-08-07T09:43:44;24.00;25.10
15977;DHT22;8091;51.914;12.786;2022-08-07T09:46:27;23.90;22.30
15977;DHT22;8091;51.914;12.786;2022-08-07T09:49:30;23.80;21.40
15977;DHT22;8091;51.914;12.786;2022-08-07T09:52:18;23.80;35.60
15977;DHT22;8091;51.914;12.786;2022-08-07T09:54:56;23.80;18.20
15977;DHT22;8091;51.914;12.786;2022-08-07T09:57:46;23.90;17.00
15977;DHT22;8091;51.914;12.786;2022-08-07T10:00:20;24.10;17.30
15977;DHT22;8091;51.914;12.786;2022-08-07T10:03:08;24.40;15.50
15977;DHT22;8091;51.914;12.786;2022-08-07T10:06:04;24.70;14.50
15977;DHT22;8091;51.914;12.786;2022-08-07T10:11:21;25.00;13.30
15977;DHT22;8091;51.914;12.786;2022-08-07T10:17:08;25.60;10.10
15977;DHT22;8091;51.914;12.786;2022-08-07T10:19:59;25.80;8.20
15977;DHT22;8091;51.914;12.786;2022-08-07T10:23:02;26.10;21.50
15977;DHT22;8091;51.914;12.786;2022-08-07T10:28:58;26.20;3.00
15977;DHT22;8091;51.914;12.786;2022-08-07T10:31:58;26.40;1.70
15977;DHT22;8091;51.914;12.786;2022-08-07T10:40:23;27.00;1.00
15977;DHT22;8091;51.914;12.786;2022-08-07T10:43:25;27.20;1.00
15977;DHT22;8091;51.914;12.786;2022-08-07T10:46:01;27.30;1.00
15977;DHT22;8091;51.914;12.786;2022-08-07T10:49:05;27.30;1.00
15977;DHT22;8091;51.914;12.786;2022-08-07T10:57:10;28.20;1.00
15977;DHT22;8091;51.914;12.786;2022-08-07T11:13:14;28.70;1.00
15977;DHT22;8091;51.914;12.786;2022-08-07T11:15:44;29.90;1.00
15977;DHT22;8091;51.914;12.786;2022-08-07T11:18:24;30.40;1.00
15977;DHT22;8091;51.914;12.786;2022-08-07T11:21:10;31.60;1.00
15977;DHT22;8091;51.914;12.786;2022-08-07T11:24:07;32.70;1.00
15977;DHT22;8091;51.914;12.786;2022-08-07T11:26:44;34.10;1.00
15977;DHT22;8091;51.914;12.786;2022-08-07T11:29:32;34.10;1.00
15977;DHT22;8091;51.914;12.786;2022-08-07T11:32:20;34.40;1.00
15977;DHT22;8091;51.914;12.786;2022-08-07T11:34:54;33.70;1.00
15977;DHT22;8091;51.914;12.786;2022-08-07T11:40:49;30.70;1.00
15977;DHT22;8091;51.914;12.786;2022-08-07T11:43:23;29.40;1.00
15977;DHT22;8091;51.914;12.786;2022-08-07T11:57:02;28.40;1.00
15977;DHT22;8091;51.914;12.786;2022-08-07T12:11:08;34.00;1.00
15977;DHT22;8091;51.914;12.786;2022-08-07T12:16:36;34.90;1.00
15977;DHT22;8091;51.914;12.786;2022-08-07T12:21:44;36.10;1.00
15977;DHT22;8091;51.914;12.786;2022-08-07T12:27:15;35.40;1.00
15977;DHT22;8091;51.914;12.786;2022-08-07T12:30:01;36.80;1.00
15977;DHT22;8091;51.914;12.786;2022-08-07T12:35:12;38.60;1.00
15977;DHT22;8091;51.914;12.786;2022-08-07T12:37:47;38.90;1.00
15977;DHT22;8091;51.914;12.786;2022-08-07T12:40:21;38.90;1.00
15977;DHT22;8091;51.914;12.786;2022-08-07T12:42:51;38.30;1.00
15977;DHT22;8091;51.914;12.786;2022-08-07T12:45:22;37.40;1.00
15977;DHT22;8091;51.914;12.786;2022-08-07T12:50:38;37.50;1.00
15977;DHT22;8091;51.914;12.786;2022-08-07T12:53:42;38.80;1.00
15977;DHT22;8091;51.914;12.786;2022-08-07T12:56:32;38.80;1.00
15977;DHT22;8091;51.914;12.786;2022-08-07T12:59:01;40.00;1.00
15977;DHT22;8091;51.914;12.786;2022-08-07T13:04:47;39.90;1.00
15977;DHT22;8091;51.914;12.786;2022-08-07T13:13:01;39.50;1.00
15977;DHT22;8091;51.914;12.786;2022-08-07T13:18:33;39.60;1.00
15977;DHT22;8091;51.914;12.786;2022-08-07T13:21:14;39.40;1.00
15977;DHT22;8091;51.914;12.786;2022-08-07T13:26:38;38.50;1.00
15977;DHT22;8091;51.914;12.786;2022-08-07T13:29:19;38.20;1.00
15977;DHT22;8091;51.914;12.786;2022-08-07T13:37:02;38.10;1.00
15977;DHT22;8091;51.914;12.786;2022-08-07T13:39:44;38.50;1.00
15977;DHT22;8091;51.914;12.786;2022-08-07T13:42:12;38.70;1.00
15977;DHT22;8091;51.914;12.786;2022-08-07T13:44:39;38.90;1.00
15977;DHT22;8091;51.914;12.786;2022-08-07T13:47:09;39.10;1.00
15977;DHT22;8091;51.914;12.786;2022-08-07T13:49:41;40.00;1.00
15977;DHT22;8091;51.914;12.786;2022-08-07T13:52:08;40.00;1.00
15977;DHT22;8091;51.914;12.786;2022-08-07T13:54:36;40.40;1.00
15977;DHT22;8091;51.914;12.786;2022-08-07T13:57:05;40.60;1.00
15977;DHT22;8091;51.914;12.786;2022-08-07T13:59:43;40.20;1.00
15977;DHT22;8091;51.914;12.786;2022-08-07T14:02:13;39.50;1.00
15977;DHT22;8091;51.914;12.786;2022-08-07T14:04:55;39.10;1.00
15977;DHT22;8091;51.914;12.786;2022-08-07T14:07:25;40.20;1.00
15977;DHT22;8091;51.914;12.786;2022-08-07T14:09:54;40.50;1.00
15977;DHT22;8091;51.914;12.786;2022-08-07T14:12:28;40.40;1.00
15977;DHT22;8091;51.914;12.786;2022-08-07T14:15:02;39.40;1.00
15977;DHT22;8091;51.914;12.786;2022-08-07T14:17:30;39.90;1.00
15977;DHT22;8091;51.914;12.786;2022-08-07T14:22:31;39.90;1.00
15977;DHT22;8091;51.914;12.786;2022-08-07T14:25:02;39.90;1.00
15977;DHT22;8091;51.914;12.786;2022-08-07T14:27:42;38.70;1.00
15977;DHT22;8091;51.914;12.786;2022-08-07T14:30:10;39.00;1.00
15977;DHT22;8091;51.914;12.786;2022-08-07T14:32:46;39.10;1.00
15977;DHT22;8091;51.914;12.786;2022-08-07T14:35:19;38.90;1.00
15977;DHT22;8091;51.914;12.786;2022-08-07T14:37:48;39.10;1.00
15977;DHT22;8091;51.914;12.786;2022-08-07T14:40:17;40.20;1.00
15977;DHT22;8091;51.914;12.786;2022-08-07T14:42:45;41.30;1.00
15977;DHT22;8091;51.914;12.786;2022-08-07T14:45:17;42.10;1.00
15977;DHT22;8091;51.914;12.786;2022-08-07T14:47:43;41.70;1.00
15977;DHT22;8091;51.914;12.786;2022-08-07T14:50:11;41.30;1.00
15977;DHT22;8091;51.914;12.786;2022-08-07T14:52:44;40.50;1.00
15977;DHT22;8091;51.914;12.786;2022-08-07T14:55:11;40.30;1.00
15977;DHT22;8091;51.914;12.786;2022-08-07T14:57:38;40.80;1.00
15977;DHT22;8091;51.914;12.786;2022-08-07T15:00:05;40.80;1.00
15977;DHT22;8091;51.914;12.786;2022-08-07T15:02:33;40.80;1.00
15977;DHT22;8091;51.914;12.786;2022-08-07T15:05:02;41.00;1.00
15977;DHT22;8091;51.914;12.786;2022-08-07T15:07:28;40.40;1.00
15977;DHT22;8091;51.914;12.786;2022-08-07T15:09:56;39.50;1.00
15977;DHT22;8091;51.914;12.786;2022-08-07T15:12:25;39.00;1.00
15977;DHT22;8091;51.914;12.786;2022-08-07T15:14:56;39.50;1.00
15977;DHT22;8091;51.914;12.786;2022-08-07T15:17:28;39.60;1.00
15977;DHT22;8091;51.914;12.786;2022-08-07T15:19:59;40.80;1.00
15977;DHT22;8091;51.914;12.786;2022-08-07T15:22:29;41.20;1.00
15977;DHT22;8091;51.914;12.786;2022-08-07T15:24:57;41.50;1.00
15977;DHT22;8091;51.914;12.786;2022-08-07T15:27:25;40.80;1.00
15977;DHT22;8091;51.914;12.786;2022-08-07T15:29:53;41.00;1.00
15977;DHT22;8091;51.914;12.786;2022-08-07T15:32:23;40.70;1.00
15977;DHT22;8091;51.914;12.786;2022-08-07T15:34:56;40.80;1.00
15977;DHT22;8091;51.914;12.786;2022-08-07T15:37:29;41.40;1.00
15977;DHT22;8091;51.914;12.786;2022-08-07T15:39:58;42.10;1.00
15977;DHT22;8091;51.914;12.786;2022-08-07T15:45:02;41.80;1.00
15977;DHT22;8091;51.914;12.786;2022-08-07T15:47:34;42.00;1.00
15977;DHT22;8091;51.914;12.786;2022-08-07T15:50:02;42.50;1.00
15977;DHT22;8091;51.914;12.786;2022-08-07T15:52:29;42.60;1.00
15977;DHT22;8091;51.914;12.786;2022-08-07T15:54:55;42.50;1.00
15977;DHT22;8091;51.914;12.786;2022-08-07T15:57:26;42.20;1.00
15977;DHT22;8091;51.914;12.786;2022-08-07T15:59:54;41.50;1.00
15977;DHT22;8091;51.914;12.786;2022-08-07T16:02:30;41.40;1.00
15977;DHT22;8091;51.914;12.786;2022-08-07T16:05:02;40.20;1.00
15977;DHT22;8091;51.914;12.786;2022-08-07T16:07:39;40.20;1.00
15977;DHT22;8091;51.914;12.786;2022-08-07T16:10:15;39.90;1.00
15977;DHT22;8091;51.914;12.786;2022-08-07T16:26:27;38.90;1.00
15977;DHT22;8091;51.914;12.786;2022-08-07T16:29:23;39.20;1.00
15977;DHT22;8091;51.914;12.786;2022-08-07T16:32:06;39.70;1.00
15977;DHT22;8091;51.914;12.786;2022-08-07T16:34:41;39.90;1.00
15977;DHT22;8091;51.914;12.786;2022-08-07T16:46:04;37.10;1.00
15977;DHT22;8091;51.914;12.786;2022-08-07T16:51:32;38.00;1.00
15977;DHT22;8091;51.914;12.786;2022-08-07T16:54:39;37.80;1.00
15977;DHT22;8091;51.914;12.786;2022-08-07T16:57:27;37.00;1.00
15977;DHT22;8091;51.914;12.786;2022-08-07T17:00:09;35.90;1.00
15977;DHT22;8091;51.914;12.786;2022-08-07T17:02:56;34.20;1.00
15977;DHT22;8091;51.914;12.786;2022-08-07T17:08:02;32.40;1.00
15977;DHT22;8091;51.914;12.786;2022-08-07T17:21:14;29.90;1.00
15977;DHT22;8091;51.914;12.786;2022-08-07T17:26:37;29.50;1.00
15977;DHT22;8091;51.914;12.786;2022-08-07T17:29:11;29.20;1.00
15977;DHT22;8091;51.914;12.786;2022-08-07T17:34:35;28.60;1.00
15977;DHT22;8091;51.914;12.786;2022-08-07T17:37:10;28.30;1.00
15977;DHT22;8091;51.914;12.786;2022-08-07T17:40:02;28.20;1.00
15977;DHT22;8091;51.914;12.786;2022-08-07T17:42:52;28.30;1.00
15977;DHT22;8091;51.914;12.786;2022-08-07T17:45:29;28.20;1.00
15977;DHT22;8091;51.914;12.786;2022-08-07T17:48:08;28.20;1.00
15977;DHT22;8091;51.914;12.786;2022-08-07T17:50:51;28.30;1.00
15977;DHT22;8091;51.914;12.786;2022-08-07T17:53:35;28.30;1.00
15977;DHT22;8091;51.914;12.786;2022-08-07T17:56:15;28.00;1.00
15977;DHT22;8091;51.914;12.786;2022-08-07T18:01:28;27.70;1.00
15977;DHT22;8091;51.914;12.786;2022-08-07T18:06:46;27.60;1.00
15977;DHT22;8091;51.914;12.786;2022-08-07T18:09:19;27.50;1.00
15977;DHT22;8091;51.914;12.786;2022-08-07T18:11:50;27.30;1.00
15977;DHT22;8091;51.914;12.786;2022-08-07T18:14:33;27.10;1.00
15977;DHT22;8091;51.914;12.786;2022-08-07T18:17:26;27.00;1.00
15977;DHT22;8091;51.914;12.786;2022-08-07T18:20:13;26.90;1.00
15977;DHT22;8091;51.914;12.786;2022-08-07T18:25:22;26.60;1.00
15977;DHT22;8091;51.914;12.786;2022-08-07T18:41:25;25.80;1.00
15977;DHT22;8091;51.914;12.786;2022-08-07T18:44:04;25.70;1.00
15977;DHT22;8091;51.914;12.786;2022-08-07T18:46:45;25.50;1.00
15977;DHT22;8091;51.914;12.786;2022-08-07T18:49:22;25.50;1.00
15977;DHT22;8091;51.914;12.786;2022-08-07T18:55:10;25.10;1.00
15977;DHT22;8091;51.914;12.786;2022-08-07T19:00:50;24.90;1.00
15977;DHT22;8091;51.914;12.786;2022-08-07T19:03:23;24.90;1.00
15977;DHT22;8091;51.914;12.786;2022-08-07T19:06:03;24.70;1.00
15977;DHT22;8091;51.914;12.786;2022-08-07T19:16:39;24.10;1.00
15977;DHT22;8091;51.914;12.786;2022-08-07T19:21:57;23.70;1.00
15977;DHT22;8091;51.914;12.786;2022-08-07T19:24:32;23.70;1.00
15977;DHT22;8091;51.914;12.786;2022-08-07T19:27:06;23.60;1.00
15977;DHT22;8091;51.914;12.786;2022-08-07T19:29:38;23.50;1.00
15977;DHT22;8091;51.914;12.786;2022-08-07T19:32:04;23.30;1.00
15977;DHT22;8091;51.914;12.786;2022-08-07T19:34:30;23.20;1.00
15977;DHT22;8091;51.914;12.786;2022-08-07T19:36:58;23.20;1.00
15977;DHT22;8091;51.914;12.786;2022-08-07T19:39:30;23.00;1.00
15977;DHT22;8091;51.914;12.786;2022-08-07T19:41:58;23.00;1.00